createdAt,value
2022-08-22T00:01:32.573Z,14.75
2022-08-22T00:02:45.175Z,13.50
2022-08-22T00:04:15.636Z,8.75
2022-08-22T00:06:46.149Z,8.33
2022-08-22T00:09:29.604Z,10.67
2022-08-22T00:12:21.258Z,11.75
2022-08-22T00:15:42.313Z,9.75
2022-08-22T00:18:16.231Z,11.50
2022-08-22T00:20:57.000Z,12.00
2022-08-22T00:23:39.526Z,11.50
2022-08-22T00:26:17.141Z,9.25
2022-08-22T00:28:52.361Z,10.50
2022-08-22T00:31:32.413Z,12.25
2022-08-22T00:34:08.710Z,6.75
2022-08-22T00:36:53.774Z,8.25
2022-08-22T00:39:24.232Z,13.00
2022-08-22T00:42:13.645Z,8.75
2022-08-22T00:45:00.231Z,5.50
2022-08-22T00:47:44.719Z,7.25
2022-08-22T00:50:20.705Z,12.00
2022-08-22T00:53:08.095Z,7.75
2022-08-22T00:56:00.639Z,5.50
2022-08-22T00:59:17.957Z,8.75
2022-08-22T01:02:01.852Z,6.75
2022-08-22T01:05:06.149Z,9.00
2022-08-22T01:07:44.133Z,8.33
2022-08-22T01:10:27.664Z,6.75
2022-08-22T01:13:22.585Z,9.25
2022-08-22T01:15:53.880Z,8.00
2022-08-22T01:18:43.012Z,9.25
2022-08-22T01:21:36.137Z,8.25
2022-08-22T01:24:31.687Z,9.00
2022-08-22T01:27:32.344Z,8.00
2022-08-22T01:30:12.057Z,8.50
2022-08-22T01:33:11.338Z,10.25
2022-08-22T01:36:03.826Z,10.50
2022-08-22T01:39:10.141Z,7.50
2022-08-22T01:41:44.270Z,10.25
2022-08-22T01:44:35.906Z,10.25
2022-08-22T01:47:27.415Z,5.67
2022-08-22T01:50:10.564Z,6.50
2022-08-22T01:52:50.976Z,6.75
2022-08-22T01:55:30.388Z,9.75
2022-08-22T01:58:02.294Z,5.25
2022-08-22T02:00:35.926Z,7.50
2022-08-22T02:03:40.349Z,9.00
2022-08-22T02:06:14.499Z,9.50
2022-08-22T02:09:01.244Z,5.75
2022-08-22T02:11:40.908Z,9.25
2022-08-22T02:14:27.418Z,5.50
2022-08-22T02:16:58.765Z,8.25
2022-08-22T02:19:34.253Z,9.75
2022-08-22T02:22:07.994Z,9.00
2022-08-22T02:25:15.796Z,8.25
2022-08-22T02:27:55.293Z,8.75
2022-08-22T02:30:43.377Z,9.75
2022-08-22T02:33:23.934Z,8.25
2022-08-22T02:36:00.944Z,7.25
2022-08-22T02:38:39.668Z,10.25
2022-08-22T02:41:22.172Z,7.67
2022-08-22T02:43:57.018Z,7.75
2022-08-22T02:46:24.677Z,9.75
2022-08-22T02:49:43.812Z,8.25
2022-08-22T02:52:35.367Z,8.75
2022-08-22T02:55:20.134Z,6.75
2022-08-22T02:58:01.890Z,7.25
2022-08-22T03:00:42.056Z,9.00
2022-08-22T03:03:21.985Z,6.75
2022-08-22T03:05:52.119Z,7.50
2022-08-22T03:08:30.763Z,9.00
2022-08-22T03:11:21.236Z,7.50
2022-08-22T03:14:13.068Z,6.67
2022-08-22T03:16:58.613Z,6.75
2022-08-22T03:20:00.638Z,9.50
2022-08-22T03:22:37.642Z,6.00
2022-08-22T03:25:30.078Z,7.00
2022-08-22T03:28:04.356Z,6.25
2022-08-22T03:30:46.200Z,9.25
2022-08-22T03:33:18.320Z,8.75
2022-08-22T03:35:46.025Z,9.75
2022-08-22T03:38:33.086Z,10.00
2022-08-22T03:41:35.471Z,7.50
2022-08-22T03:44:12.248Z,6.50
2022-08-22T03:46:55.930Z,9.00
2022-08-22T03:49:35.348Z,9.00
2022-08-22T03:52:27.181Z,6.75
2022-08-22T03:55:15.889Z,8.00
2022-08-22T03:57:58.331Z,10.75
2022-08-22T04:00:57.166Z,4.50
2022-08-22T04:04:11.639Z,6.25
2022-08-22T04:06:42.509Z,5.75
2022-08-22T04:09:32.249Z,7.75
2022-08-22T04:12:34.159Z,10.50
2022-08-22T04:15:19.811Z,10.75
2022-08-22T04:18:05.539Z,8.00
2022-08-22T04:20:55.078Z,7.50
2022-08-22T04:23:31.548Z,6.75
2022-08-22T04:26:12.692Z,9.00
2022-08-22T04:28:45.601Z,11.25
2022-08-22T04:31:17.766Z,8.25
2022-08-22T04:34:12.523Z,9.00
2022-08-22T04:36:46.025Z,9.00
2022-08-22T04:39:22.822Z,12.75
2022-08-22T04:42:11.157Z,10.25
2022-08-22T04:44:54.568Z,11.25
2022-08-22T04:47:39.720Z,13.00
2022-08-22T04:50:15.424Z,13.50
2022-08-22T04:52:53.170Z,13.00
2022-08-22T04:55:46.641Z,11.25
2022-08-22T04:58:39.926Z,13.00
2022-08-22T05:01:07.560Z,11.25
2022-08-22T05:03:41.885Z,11.25
2022-08-22T05:06:16.209Z,17.50
2022-08-22T05:08:46.444Z,25.50
2022-08-22T05:11:23.178Z,22.00
2022-08-22T05:13:56.866Z,29.75
2022-08-22T05:16:30.724Z,31.75
2022-08-22T05:19:04.108Z,23.75
2022-08-22T05:21:35.586Z,28.75
2022-08-22T05:24:07.057Z,28.25
2022-08-22T05:26:43.341Z,26.50
2022-08-22T05:29:14.599Z,19.50
2022-08-22T05:31:49.488Z,25.50
2022-08-22T05:34:24.908Z,28.00
2022-08-22T05:36:57.706Z,20.00
2022-08-22T05:39:28.245Z,26.00
2022-08-22T05:42:02.423Z,26.25
2022-08-22T05:44:37.885Z,22.00
2022-08-22T05:47:14.928Z,29.75
2022-08-22T05:49:51.572Z,19.50
2022-08-22T05:52:29.011Z,17.33
2022-08-22T05:55:07.986Z,30.00
2022-08-22T05:57:39.645Z,20.50
2022-08-22T06:00:13.264Z,28.50
2022-08-22T06:03:08.296Z,24.25
2022-08-22T06:05:40.614Z,19.50
2022-08-22T06:08:18.009Z,23.50
2022-08-22T06:10:49.763Z,21.00
2022-08-22T06:13:32.568Z,20.75
2022-08-22T06:16:00.173Z,23.50
2022-08-22T06:18:29.380Z,14.00
2022-08-22T06:21:01.997Z,29.00
2022-08-22T06:23:37.003Z,22.50
2022-08-22T06:26:05.784Z,25.75
2022-08-22T06:28:55.125Z,19.25
2022-08-22T06:31:29.282Z,20.75
2022-08-22T06:34:09.230Z,21.75
2022-08-22T06:36:40.066Z,20.00
2022-08-22T06:39:11.484Z,19.50
2022-08-22T06:41:52.313Z,19.00
2022-08-22T06:44:30.000Z,19.50
2022-08-22T06:47:00.290Z,17.00
2022-08-22T06:49:29.617Z,18.75
2022-08-22T06:52:23.739Z,17.75
2022-08-22T06:55:00.219Z,15.25
2022-08-22T06:57:35.291Z,13.25
2022-08-22T07:00:10.939Z,16.67
2022-08-22T07:02:42.970Z,14.00
2022-08-22T07:05:17.631Z,17.25
2022-08-22T07:07:45.850Z,9.25
2022-08-22T07:10:15.844Z,15.25
2022-08-22T07:12:46.552Z,13.50
2022-08-22T07:15:34.541Z,17.50
2022-08-22T07:18:09.825Z,16.50
2022-08-22T07:20:42.129Z,19.00
2022-08-22T07:23:12.656Z,14.25
2022-08-22T07:25:59.846Z,15.75
2022-08-22T07:28:51.259Z,11.25
2022-08-22T07:31:46.733Z,18.75
2022-08-22T07:34:23.184Z,13.25
2022-08-22T07:37:03.681Z,14.00
2022-08-22T07:39:50.510Z,17.50
2022-08-22T07:42:35.685Z,19.00
2022-08-22T07:45:20.891Z,9.75
2022-08-22T07:48:06.824Z,14.75
2022-08-22T07:50:39.382Z,12.00
2022-08-22T07:53:34.053Z,13.75
2022-08-22T07:56:03.882Z,11.25
2022-08-22T07:58:34.079Z,17.50
2022-08-22T08:01:02.754Z,11.67
2022-08-22T08:03:31.480Z,14.75
2022-08-22T08:06:00.492Z,13.75
2022-08-22T08:08:35.042Z,12.50
2022-08-22T08:11:04.033Z,15.50
2022-08-22T08:13:38.275Z,19.75
2022-08-22T08:16:09.830Z,13.75
2022-08-22T08:18:39.344Z,14.75
2022-08-22T08:21:09.473Z,11.50
2022-08-22T08:23:42.083Z,13.00
2022-08-22T08:26:19.778Z,13.25
2022-08-22T08:28:51.601Z,14.75
2022-08-22T08:31:43.233Z,17.25
2022-08-22T08:34:21.062Z,11.00
2022-08-22T08:37:12.780Z,13.50
2022-08-22T08:39:49.024Z,11.25
2022-08-22T08:42:55.684Z,11.75
2022-08-22T08:45:40.603Z,11.00
2022-08-22T08:48:15.011Z,14.25
2022-08-22T08:50:45.700Z,14.25
2022-08-22T08:53:55.382Z,15.25
2022-08-22T08:56:23.059Z,15.75
2022-08-22T08:59:00.341Z,11.25
2022-08-22T09:01:43.393Z,13.00
2022-08-22T09:04:17.232Z,12.00
2022-08-22T09:07:09.764Z,10.25
2022-08-22T09:10:01.290Z,15.50
2022-08-22T09:13:12.762Z,10.75
2022-08-22T09:15:40.978Z,15.00
2022-08-22T09:18:31.293Z,14.75
2022-08-22T09:24:41.665Z,14.25
2022-08-22T09:27:29.232Z,13.25
2022-08-22T09:30:08.308Z,12.75
2022-08-22T09:32:56.923Z,11.00
2022-08-22T09:35:41.945Z,11.75
2022-08-22T09:38:28.535Z,13.67
2022-08-22T09:41:25.270Z,15.00
2022-08-22T09:43:52.913Z,15.25
2022-08-22T09:46:31.630Z,12.50
2022-08-22T09:49:14.530Z,14.50
2022-08-22T09:51:56.460Z,15.25
2022-08-22T09:54:31.075Z,14.25
2022-08-22T09:57:16.483Z,16.00
2022-08-22T10:00:12.993Z,15.00
2022-08-22T10:02:49.651Z,14.00
2022-08-22T10:05:45.528Z,15.25
2022-08-22T10:08:31.410Z,16.25
2022-08-22T10:11:07.079Z,11.75
2022-08-22T10:14:01.962Z,15.00
2022-08-22T10:17:01.924Z,15.25
2022-08-22T10:19:42.826Z,16.50
2022-08-22T10:22:30.170Z,18.00
2022-08-22T10:25:20.489Z,15.50
2022-08-22T10:28:10.433Z,17.25
2022-08-22T10:30:56.522Z,13.75
2022-08-22T10:33:29.308Z,17.00
2022-08-22T10:36:07.902Z,20.25
2022-08-22T10:38:50.595Z,15.75
2022-08-22T10:41:59.897Z,11.50
2022-08-22T10:44:55.138Z,13.75
2022-08-22T10:47:29.857Z,15.75
2022-08-22T10:50:10.794Z,13.25
2022-08-22T10:53:12.232Z,15.67
2022-08-22T10:55:40.919Z,17.75
2022-08-22T10:58:14.869Z,13.25
2022-08-22T11:01:00.506Z,17.50
2022-08-22T11:03:40.277Z,16.25
2022-08-22T11:06:15.455Z,14.50
2022-08-22T11:09:09.029Z,17.25
2022-08-22T11:11:44.444Z,13.50
2022-08-22T11:14:31.645Z,17.00
2022-08-22T11:17:30.998Z,16.25
2022-08-22T11:20:19.627Z,18.50
2022-08-22T11:23:06.497Z,13.50
2022-08-22T11:25:52.548Z,13.00
2022-08-22T11:28:28.841Z,14.50
2022-08-22T11:31:22.765Z,14.75
2022-08-22T11:34:16.374Z,17.25
2022-08-22T11:36:54.853Z,15.00
2022-08-22T11:39:28.914Z,14.50
2022-08-22T11:42:15.677Z,17.00
2022-08-22T11:44:57.261Z,21.75
2022-08-22T11:47:30.911Z,10.75
2022-08-22T11:50:10.722Z,16.75
2022-08-22T11:53:15.511Z,14.75
2022-08-22T11:55:53.202Z,15.00
2022-08-22T11:58:39.393Z,15.50
2022-08-22T12:01:23.660Z,14.00
2022-08-22T12:04:06.508Z,17.25
2022-08-22T12:06:47.004Z,17.25
2022-08-22T12:09:23.090Z,12.25
2022-08-22T12:11:59.649Z,15.25
2022-08-22T12:14:36.918Z,17.25
2022-08-22T12:17:10.689Z,14.75
2022-08-22T12:20:18.579Z,16.00
2022-08-22T12:22:52.649Z,12.25
2022-08-22T12:25:22.157Z,12.25
2022-08-22T12:28:20.444Z,11.50
2022-08-22T12:31:19.697Z,15.75
2022-08-22T12:33:58.764Z,17.00
2022-08-22T12:36:43.169Z,14.75
2022-08-22T12:39:32.412Z,12.25
2022-08-22T12:42:11.247Z,15.00
2022-08-22T12:45:07.543Z,11.75
2022-08-22T12:48:01.318Z,10.00
2022-08-22T12:51:03.681Z,11.00
2022-08-22T12:54:15.765Z,12.75
2022-08-22T12:57:01.694Z,8.50
2022-08-22T12:59:39.491Z,10.25
2022-08-22T13:02:20.582Z,11.50
2022-08-22T13:04:56.078Z,15.50
2022-08-22T13:07:32.990Z,15.00
2022-08-22T13:10:21.764Z,12.00
2022-08-22T13:12:53.314Z,10.25
2022-08-22T13:15:22.092Z,13.25
2022-08-22T13:17:54.875Z,11.75
2022-08-22T13:20:44.419Z,8.75
2022-08-22T13:23:16.889Z,10.75
2022-08-22T13:26:07.685Z,17.00
2022-08-22T13:29:24.458Z,12.75
2022-08-22T13:32:02.196Z,10.50
2022-08-22T13:34:40.531Z,8.00
2022-08-22T13:37:20.153Z,10.50
2022-08-22T13:39:57.892Z,12.25
2022-08-22T13:42:30.994Z,12.00
2022-08-22T13:45:04.592Z,5.50
2022-08-22T13:47:39.451Z,11.00
2022-08-22T13:50:14.965Z,8.75
2022-08-22T13:53:02.075Z,27.75
2022-08-22T13:55:44.481Z,27.75
2022-08-22T13:58:44.575Z,30.00
2022-08-22T14:01:37.872Z,33.50
2022-08-22T14:04:28.333Z,20.75
2022-08-22T14:07:02.902Z,22.67
2022-08-22T14:09:54.382Z,20.00
2022-08-22T14:12:24.553Z,22.25
2022-08-22T14:14:59.655Z,25.33
2022-08-22T14:17:44.151Z,17.75
2022-08-22T14:20:33.601Z,20.00
2022-08-22T14:23:08.842Z,24.75
2022-08-22T14:25:40.090Z,12.00
2022-08-22T14:28:19.735Z,16.00
2022-08-22T14:31:00.790Z,18.75
2022-08-22T14:33:35.609Z,21.00
2022-08-22T14:36:13.424Z,17.00
2022-08-22T14:38:47.029Z,20.00
2022-08-22T14:41:21.068Z,20.50
2022-08-22T14:43:57.336Z,20.00
2022-08-22T14:46:30.265Z,20.50
2022-08-22T14:49:13.648Z,20.50
2022-08-22T14:51:50.853Z,24.50
2022-08-22T14:54:22.133Z,20.75
2022-08-22T14:56:52.789Z,15.50
2022-08-22T14:59:33.326Z,20.00
2022-08-22T15:02:24.116Z,17.25
2022-08-22T15:04:53.674Z,19.75
2022-08-22T15:07:25.548Z,17.25
2022-08-22T15:09:58.817Z,16.25
2022-08-22T15:12:39.456Z,18.00
2022-08-22T15:15:16.908Z,17.75
2022-08-22T15:17:50.833Z,15.00
2022-08-22T15:20:36.385Z,22.50
2022-08-22T15:23:21.219Z,19.00
2022-08-22T15:26:07.598Z,18.25
2022-08-22T15:28:53.392Z,32.75
2022-08-22T15:31:22.358Z,20.75
2022-08-22T15:33:51.539Z,18.25
2022-08-22T15:36:25.265Z,21.50
2022-08-22T15:39:33.858Z,20.50
2022-08-22T15:42:03.315Z,19.25
2022-08-22T15:44:37.122Z,13.33
2022-08-22T15:47:27.081Z,17.25
2022-08-22T15:50:01.446Z,10.75
2022-08-22T15:52:32.290Z,13.50
2022-08-22T15:55:17.155Z,19.25
2022-08-22T15:57:52.189Z,11.50
2022-08-22T16:00:32.671Z,13.00
2022-08-22T16:03:05.338Z,11.75
2022-08-22T16:05:58.910Z,12.75
2022-08-22T16:08:41.212Z,12.75
2022-08-22T16:11:18.088Z,11.75
2022-08-22T16:13:46.658Z,13.25
2022-08-22T16:16:26.488Z,15.25
2022-08-22T16:18:54.336Z,12.50
2022-08-22T16:21:22.368Z,14.50
2022-08-22T16:23:50.084Z,13.75
2022-08-22T16:26:31.166Z,10.75
2022-08-22T16:29:13.616Z,12.75
2022-08-22T16:31:48.408Z,13.50
2022-08-22T16:34:16.474Z,11.67
2022-08-22T16:37:08.702Z,11.75
2022-08-22T16:40:03.481Z,13.25
2022-08-22T16:42:34.206Z,11.00
2022-08-22T16:45:14.436Z,12.00
2022-08-22T16:47:56.769Z,11.75
2022-08-22T16:50:40.917Z,15.75
2022-08-22T16:53:45.864Z,9.25
2022-08-22T16:56:20.075Z,8.00
2022-08-22T16:59:23.576Z,12.33
2022-08-22T17:02:06.231Z,10.75
2022-08-22T17:04:44.050Z,12.75
2022-08-22T17:07:21.517Z,14.25
2022-08-22T17:10:11.668Z,12.75
2022-08-22T17:12:58.212Z,10.25
2022-08-22T17:15:34.754Z,15.75
2022-08-22T17:18:11.708Z,14.50
2022-08-22T17:20:46.430Z,12.75
2022-08-22T17:23:33.523Z,10.75
2022-08-22T17:26:18.137Z,10.50
2022-08-22T17:29:04.622Z,12.75
2022-08-22T17:31:40.354Z,12.25
2022-08-22T17:34:26.267Z,9.50
2022-08-22T17:36:59.937Z,9.25
2022-08-22T17:39:46.278Z,8.00
2022-08-22T17:42:45.025Z,11.00
2022-08-22T17:45:12.706Z,6.75
2022-08-22T17:47:52.516Z,7.00
2022-08-22T17:50:41.825Z,8.25
2022-08-22T17:53:16.241Z,6.25
2022-08-22T17:56:01.071Z,7.25
2022-08-22T17:58:43.496Z,8.75
2022-08-22T18:01:16.186Z,7.75
2022-08-22T18:03:51.635Z,12.00
2022-08-22T18:06:19.318Z,8.75
2022-08-22T18:09:15.427Z,9.25
2022-08-22T18:11:45.349Z,7.75
2022-08-22T18:14:18.807Z,8.25
2022-08-22T18:16:48.887Z,6.25
2022-08-22T18:19:44.341Z,8.75
2022-08-22T18:22:19.312Z,8.25
2022-08-22T18:24:55.584Z,9.00
2022-08-22T18:27:34.724Z,8.25
2022-08-22T18:30:19.825Z,5.50
2022-08-22T18:32:51.545Z,8.00
2022-08-22T18:35:23.079Z,9.00
2022-08-22T18:38:19.129Z,6.67
2022-08-22T18:40:55.131Z,5.50
2022-08-22T18:43:31.709Z,5.75
2022-08-22T18:46:03.844Z,7.50
2022-08-22T18:48:54.389Z,8.50
2022-08-22T18:51:38.528Z,8.25
2022-08-22T18:54:11.132Z,6.00
2022-08-22T18:56:54.685Z,8.00
2022-08-22T18:59:46.878Z,11.50
2022-08-22T19:02:33.992Z,12.50
2022-08-22T19:05:24.456Z,9.00
2022-08-22T19:08:01.185Z,7.00
2022-08-22T19:10:51.413Z,11.00
2022-08-22T19:13:19.223Z,8.25
2022-08-22T19:15:55.996Z,15.00
2022-08-22T19:18:29.571Z,8.25
2022-08-22T19:21:43.952Z,9.00
2022-08-22T19:24:33.438Z,9.00
2022-08-22T19:27:07.232Z,7.00
2022-08-22T19:29:34.849Z,10.75
2022-08-22T19:32:05.865Z,11.25
2022-08-22T19:34:41.996Z,8.33
2022-08-22T19:37:32.554Z,9.25
2022-08-22T19:40:10.374Z,5.33
2022-08-22T19:42:40.143Z,10.00
2022-08-22T19:45:19.634Z,8.00
2022-08-22T19:48:10.517Z,7.50
2022-08-22T19:50:39.756Z,8.75
2022-08-22T19:53:19.705Z,7.00
2022-08-22T19:56:08.707Z,6.00
2022-08-22T19:58:36.473Z,9.50
2022-08-22T20:01:04.359Z,8.75
2022-08-22T20:03:51.517Z,6.25
2022-08-22T20:06:43.982Z,8.00
2022-08-22T20:09:45.212Z,9.00
2022-08-22T20:12:36.835Z,9.00
2022-08-22T20:15:17.193Z,7.25
2022-08-22T20:18:11.620Z,11.25
2022-08-22T20:20:38.522Z,5.25
2022-08-22T20:23:13.899Z,10.50
2022-08-22T20:25:45.142Z,13.00
2022-08-22T20:28:31.418Z,8.50
2022-08-22T20:31:02.352Z,7.75
2022-08-22T20:33:55.942Z,10.50
2022-08-22T20:36:28.921Z,8.50
2022-08-22T20:39:07.960Z,9.25
2022-08-22T20:41:44.767Z,6.75
2022-08-22T20:44:40.811Z,9.25
2022-08-22T20:47:19.402Z,8.00
2022-08-22T20:49:50.731Z,11.75
2022-08-22T20:52:21.677Z,6.33
2022-08-22T20:55:12.350Z,7.25
2022-08-22T20:57:49.172Z,11.25
2022-08-22T21:00:26.004Z,10.75
2022-08-22T21:02:53.871Z,9.33
2022-08-22T21:05:33.500Z,10.75
2022-08-22T21:08:06.062Z,8.00
2022-08-22T21:10:55.323Z,9.75
2022-08-22T21:13:28.985Z,11.75
2022-08-22T21:16:15.774Z,13.00
2022-08-22T21:18:46.509Z,14.50
2022-08-22T21:21:29.053Z,11.50
2022-08-22T21:24:06.653Z,11.25
2022-08-22T21:26:39.405Z,9.75
2022-08-22T21:29:18.377Z,10.50
2022-08-22T21:32:04.514Z,10.00
2022-08-22T21:34:42.450Z,14.00
2022-08-22T21:37:25.515Z,6.00
2022-08-22T21:40:02.149Z,9.00
2022-08-22T21:42:39.816Z,13.25
2022-08-22T21:45:13.782Z,8.50
2022-08-22T21:47:42.931Z,9.00
2022-08-22T21:50:25.663Z,7.50
2022-08-22T21:52:56.273Z,9.25
2022-08-22T21:55:29.154Z,7.75
2022-08-22T21:58:10.676Z,9.75
2022-08-22T22:00:54.517Z,7.50
2022-08-22T22:03:31.147Z,9.50
2022-08-22T22:06:01.173Z,9.75
2022-08-22T22:08:31.392Z,7.00
2022-08-22T22:11:02.594Z,6.00
2022-08-22T22:13:33.581Z,8.50
2022-08-22T22:16:01.366Z,9.00
2022-08-22T22:18:34.130Z,7.25
2022-08-22T22:21:02.082Z,6.00
2022-08-22T22:23:30.167Z,4.50
2022-08-22T22:26:00.894Z,8.67
2022-08-22T22:28:30.449Z,5.00
2022-08-22T22:30:58.867Z,7.50
2022-08-22T22:33:31.007Z,6.25
2022-08-22T22:36:04.499Z,4.75
2022-08-22T22:38:32.419Z,5.00
2022-08-22T22:41:00.188Z,8.00
2022-08-22T22:43:28.871Z,6.25
2022-08-22T22:45:56.943Z,8.00
2022-08-22T22:48:25.115Z,6.50
2022-08-22T22:50:54.093Z,7.00
2022-08-22T22:53:40.217Z,9.25
2022-08-22T22:56:14.220Z,7.33
2022-08-22T22:58:44.239Z,7.75
2022-08-22T23:01:15.728Z,7.50
2022-08-22T23:03:44.348Z,6.75
2022-08-22T23:06:18.267Z,8.25
2022-08-22T23:08:47.382Z,4.50
2022-08-22T23:11:19.006Z,6.75
2022-08-22T23:13:48.394Z,3.50
2022-08-22T23:16:24.037Z,4.00
2022-08-22T23:18:52.305Z,7.25
2022-08-22T23:21:23.399Z,4.25
2022-08-22T23:23:53.644Z,5.50
2022-08-22T23:26:21.424Z,3.75
2022-08-22T23:28:49.334Z,5.75
2022-08-22T23:31:38.930Z,6.50
2022-08-22T23:34:13.561Z,5.00
2022-08-22T23:36:45.519Z,6.50
2022-08-22T23:39:15.530Z,9.25
2022-08-22T23:41:43.551Z,5.50
2022-08-22T23:44:13.895Z,9.75
2022-08-22T23:46:42.774Z,7.33
2022-08-22T23:49:10.795Z,4.00
2022-08-22T23:51:38.954Z,6.00
2022-08-22T23:54:07.444Z,5.00
2022-08-22T23:56:38.250Z,4.75
2022-08-22T23:59:09.740Z,6.00
